»·PEaware :: N6870P KSNA-KSAN

N6870P :: KSNA-KSAN

FLIGHT INFORMATION

Flight Status: Arrived
Operator: Privately registered:
United States
More flights under this callsign
Pilot: Larry J. (31147)
Aircraft: PIPER PA-24 COMMANCHE
(PA24)
More flights by this aircraft type
Origin: KSNA John Wayne-Orange Co
United States
Destination: KSAN San Diego Intl-Lindbergh
United States
More flights between these airports :: More routes between these airports
Route: V23 MZB SAN
File this flight plan on PilotEdge
Remarks: TEC route CSTP31
Altitude:
(Current/Filed)
5,000ft
Speed:
(Current/Filed)
125kts
Departed: 15-Oct-20 09:22 AM
Arrived: 15-Oct-20 10:08 AM
Distance/Time
Traveled:
66nm/0:46
Distance/Time
To Go:
Arrived

Flight Plot

Page will automatically refresh every two minutes.

Flight plan parsing failed; only flown route is shown


Map Options




Map Legend


Flown Route
Filed Route
Departure Airport
Arrival Airport
Navaid (VOR, NDB)
Fix

Horizontal Profiles

Position Reports

Time Latitude Longitude Heading Altitude Ground
Speed
15-Oct-20 08:54 33.674113 -117.865570 117 58ft 0kts
15-Oct-20 08:55 33.674113 -117.865570 117 58ft 0kts
15-Oct-20 08:56 33.674113 -117.865570 117 58ft 0kts
15-Oct-20 08:57 33.674113 -117.865570 117 58ft 0kts
15-Oct-20 08:58 33.674113 -117.865570 117 58ft 0kts
15-Oct-20 08:59 33.674113 -117.865570 117 58ft 0kts
15-Oct-20 09:00 33.674113 -117.865570 117 58ft 0kts
15-Oct-20 09:01 33.674113 -117.865570 117 58ft 0kts
15-Oct-20 09:02 33.674113 -117.865570 117 58ft 0kts
15-Oct-20 09:03 33.674113 -117.865570 117 58ft 0kts
15-Oct-20 09:04 33.674113 -117.865570 117 58ft 0kts
15-Oct-20 09:05 33.674113 -117.865570 117 58ft 0kts
15-Oct-20 09:06 33.674113 -117.865570 117 58ft 0kts
15-Oct-20 09:07 33.674113 -117.865570 117 58ft 0kts
15-Oct-20 09:08 33.674113 -117.865570 117 58ft 0kts
15-Oct-20 09:09 33.674113 -117.865570 117 58ft 0kts
15-Oct-20 09:10 33.674113 -117.865570 117 58ft 0kts
15-Oct-20 09:11 33.674113 -117.865570 117 58ft 0kts
15-Oct-20 09:12 33.674107 -117.865485 78 58ft 4kts
15-Oct-20 09:13 33.674663 -117.865559 328 58ft 0kts
15-Oct-20 09:14 33.673805 -117.866699 223 58ft 8kts
15-Oct-20 09:15 33.675787 -117.866026 26 58ft 10kts
15-Oct-20 09:16 33.678085 -117.864562 27 58ft 8kts
15-Oct-20 09:17 33.679506 -117.863646 17 58ft 0kts
15-Oct-20 09:18 33.679619 -117.863564 28 58ft 10kts
15-Oct-20 09:19 33.679886 -117.864317 208 58ft 0kts
15-Oct-20 09:20 33.679886 -117.864317 208 58ft 0kts
15-Oct-20 09:21 33.663325 -117.875682 212 595ft 120kts
15-Oct-20 09:22 33.629642 -117.883990 186 2211ft 130kts
15-Oct-20 09:23 33.594196 -117.889985 185 3797ft 127kts
15-Oct-20 09:24 33.559133 -117.895942 185 5001ft 147kts
15-Oct-20 09:25 33.512617 -117.903030 185 4998ft 178kts
15-Oct-20 09:26 33.482133 -117.876382 110 4997ft 134kts
15-Oct-20 09:27 33.467585 -117.834002 111 4999ft 140kts
15-Oct-20 09:28 33.452740 -117.790671 110 4999ft 140kts
15-Oct-20 09:29 33.437921 -117.747386 110 4999ft 140kts
15-Oct-20 09:30 33.423111 -117.704111 110 4998ft 138kts
15-Oct-20 09:31 33.408723 -117.662052 110 4999ft 136kts
15-Oct-20 09:32 33.394388 -117.620165 110 4999ft 135kts
15-Oct-20 09:33 33.375759 -117.581475 129 4998ft 135kts
15-Oct-20 09:34 33.351300 -117.547217 132 4999ft 135kts
15-Oct-20 09:35 33.324891 -117.515118 133 4999ft 135kts
15-Oct-20 09:36 33.298170 -117.483415 133 4999ft 135kts
15-Oct-20 09:37 33.271186 -117.451843 134 4999ft 135kts
15-Oct-20 09:38 33.244226 -117.420467 134 4999ft 135kts
15-Oct-20 09:39 33.209646 -117.403841 159 4999ft 135kts
15-Oct-20 09:40 33.174004 -117.389075 158 4973ft 137kts
15-Oct-20 09:41 33.138220 -117.373958 159 4962ft 136kts
15-Oct-20 09:42 33.102641 -117.358995 159 4962ft 135kts
15-Oct-20 09:43 33.067066 -117.344047 159 4962ft 135kts
15-Oct-20 09:44 33.031473 -117.329088 160 4962ft 135kts
15-Oct-20 09:45 32.995904 -117.314194 159 4962ft 135kts
15-Oct-20 09:46 32.960438 -117.299319 159 4962ft 135kts
15-Oct-20 09:47 32.925572 -117.282988 134 4967ft 135kts
15-Oct-20 09:48 32.911796 -117.246492 111 4962ft 135kts
15-Oct-20 09:49 32.898559 -117.207830 110 4962ft 135kts
15-Oct-20 09:50 32.885136 -117.168462 110 4962ft 135kts
15-Oct-20 09:51 32.871199 -117.127571 110 4962ft 135kts
15-Oct-20 09:52 32.857370 -117.086978 110 4962ft 135kts
15-Oct-20 09:53 32.843439 -117.046068 110 4962ft 135kts
15-Oct-20 09:54 32.829590 -117.005383 110 4962ft 135kts
15-Oct-20 09:55 32.815478 -116.963908 110 4962ft 135kts
15-Oct-20 09:56 32.789360 -116.942012 190 4961ft 134kts
15-Oct-20 09:57 32.752671 -116.951280 190 4962ft 135kts
15-Oct-20 09:58 32.716004 -116.960588 190 4962ft 135kts
15-Oct-20 09:59 32.693564 -116.983860 279 4556ft 131kts
15-Oct-20 10:00 32.697808 -117.008912 280 3809ft 84kts
15-Oct-20 10:01 32.702519 -117.035613 276 2954ft 76kts
15-Oct-20 10:02 32.707205 -117.060389 281 2820ft 86kts
15-Oct-20 10:03 32.712138 -117.093723 272 1215ft 109kts
15-Oct-20 10:04 32.717663 -117.125962 281 890ft 99kts
15-Oct-20 10:05 32.724349 -117.155336 290 561ft 94kts
15-Oct-20 10:06 32.731496 -117.181201 286 70ft 75kts
15-Oct-20 10:07 32.734849 -117.187878 327 19ft 0kts

Navigation Log

Ident Type
Flight plan parsing failed, navigation log unavailable